x

Southwest Hawaii - 215nm Ssw Of Hilo, Hi (51002) Wave Buoy

1:40pm - Mon 23rd Jan 2017 All times are HST. -10 hours from GMT.

  • Sig Wave height 11.8ft
  • Swell Direction
  • Average Period 7s
  • Wind
    22mph, 29mph gusts
  • Sea Temp 77°f
  • Air Temp 74°f
  • Sea Pressure 1017.4mb
  • Southwest Hawaii - 215nm Ssw Of Hilo, Hi
  • Southwest Hawaii - 215nm Ssw Of Hilo, Hi

More Historic Weather Station data

Upgrade to MSW Pro to gain access to the past 30 days of data for over 8000 Wavebouys and Weather Stations around the globe.

Join Pro

Comparision Forecast

View Surf forecast
   
Mon 01/23 1:40pm 12ft  -  7s 22 29 mph 1017.4mb 77f 74f
1:30pm  -   -   -  25 29 mph 1017.5mb 77f 75f
1:20pm  -   -   -  22 27 mph 1017.8mb 77f 75f
1:10pm  -   -   -  25 31 mph 1017.9mb 77f 73f
1:00pm  -   -   -  27 34 mph 1018mb 77f 73f
12:50pm 12ft 10s 7s 29 36 mph 1018.1mb 77f 73f
12:40pm 12ft  -  7s 22 29 mph 1018.3mb 77f 73f
12:30pm  -   -   -  25 29 mph 1018.4mb - 73f
12:20pm  -   -   -  22 31 mph 1018.5mb 77f 75f
12:10pm  -   -   -  22 27 mph 1018.6mb 77f 75f
12:00pm  -   -   -  25 34 mph 1018.8mb 77f 74f
11:50am 12ft 10s 7s 27 38 mph 1019mb 77f 74f
11:40am 12ft  -  7s 25 29 mph 1019mb 77f 76f
11:30am  -   -   -  25 31 mph 1019mb 77f 76f
11:20am  -   -   -  25 31 mph 1019.1mb 77f 75f
11:10am  -   -   -  22 29 mph 1019.3mb 77f 74f
11:00am  -   -   -  25 29 mph 1019.4mb 77f 75f
10:50am 13ft 10s 7s 25 29 mph 1019.4mb 77f 76f
10:40am 13ft  -  7s 25 31 mph 1019.4mb 77f 76f
10:30am  -   -   -  25 34 mph 1019.5mb 77f 75f
10:20am  -   -   -  22 27 mph 1019.5mb 77f 74f
10:10am  -   -   -  25 36 mph 1019.5mb 77f 75f
10:00am  -   -   -  25 31 mph 1019.5mb 77f 76f
9:50am 13ft 9s 7s 25 31 mph 1019.5mb 77f 76f
9:40am  -   -   -  27 36 mph 1019.5mb 77f 75f
9:30am  -   -   -  25 34 mph 1019.5mb 77f 74f
9:20am  -   -   -  25 34 mph 1019.5mb 77f 75f
9:10am  -   -   -  25 29 mph 1019.1mb 77f 75f
9:00am  -   -   -  25 31 mph 1019mb 77f 75f
8:50am 13ft 10s 7s 25 29 mph 1018.9mb 77f 74f
8:40am 13ft  -  7s 25 34 mph 1018.8mb 77f 74f
8:30am  -   -   -  27 36 mph 1018.6mb 77f 75f
8:20am  -   -   -  27 34 mph 1018.5mb 77f 76f
8:10am  -   -   -  27 34 mph 1018.3mb 77f 75f
8:00am  -   -   -  27 40 mph 1018.1mb 77f 76f
7:50am 14ft 10s 7s 25 31 mph 1018.1mb 77f 75f
7:40am 14ft  -  7s 25 36 mph 1018.1mb 77f 75f
7:30am  -   -   -  25 31 mph 1018.1mb 77f 75f
7:20am  -   -   -  27 34 mph 1018.3mb 77f 74f
7:10am  -   -   -  25 34 mph 1018.1mb 77f 76f
7:00am  -   -   -  25 31 mph 1017.9mb 77f 76f
6:50am 14ft 10s 7s 27 34 mph 1017.5mb 77f 76f
6:40am 14ft  -  7s 25 31 mph 1017.6mb 77f 75f
6:30am  -   -   -  27 31 mph 1017.5mb 77f 76f
6:20am  -   -   -  25 31 mph 1017.4mb 77f 75f
6:10am  -   -   -  25 36 mph 1017.3mb 77f 74f
6:00am  -   -   -  25 34 mph 1017.1mb 77f 76f
5:50am 15ft 10s 8s 25 31 mph 1017.1mb 77f 76f
5:40am 15ft  -  8s 27 34 mph 1017mb 77f 75f
5:30am  -   -   -  27 34 mph 1017mb 77f 74f
5:20am  -   -   -  25 40 mph 1017mb 77f 75f
5:10am  -   -   -  25 29 mph 1016.9mb 77f 75f
5:00am  -   -   -  25 31 mph 1016.9mb 77f 74f
4:50am 14.5ft 10s 7s 27 36 mph 1016.8mb 77f 76f
4:40am  -   -   -  27 34 mph 1016.8mb 77f 76f
4:30am  -   -   -  27 34 mph 1016.6mb 77f 75f
4:20am  -   -   -  27 34 mph 1016.6mb 77f 75f
4:10am  -   -   -  27 36 mph 1016.4mb 77f 75f
4:00am  -   -   -  27 34 mph 1016.8mb - 75f
3:50am 15.5ft 10s 8s 29 34 mph 1016.6mb - 75f
3:40am  -   -   -  29 36 mph 1016.5mb 77f 75f
3:10am  -   -   -  31 40 mph 1017.2mb - 76f
3:00am  -   -   -  27 38 mph 1016.9mb 77f 75f
2:50am 14ft 9s 8s 29 36 mph 1017mb 77f 75f
2:40am  -   -   -  29 36 mph 1017mb 77f 76f
2:30am  -   -   -  27 34 mph 1017.3mb 77f 76f
2:20am  -   -   -  27 36 mph 1017.4mb 77f 76f
2:10am  -   -   -  29 36 mph 1017.5mb 77f 76f
2:00am  -   -   -  25 34 mph 1017.5mb 77f 76f
1:50am 15.5ft 10s 8s 27 36 mph 1017.8mb 77f 75f
1:40am 15.5ft  -  8s 27 40 mph 1018mb 77f 75f
1:30am  -   -   -  29 34 mph 1017.9mb 77f 76f
1:20am  -   -   -  29 36 mph 1017.9mb 77f 76f
1:10am  -   -   -  27 36 mph 1018mb 77f 76f
1:00am  -   -   -  25 31 mph 1018.1mb 78f 75f
12:50am 16.5ft 10s 8s 27 31 mph 1018.1mb 77f 74f
12:40am 16.5ft  -  8s 29 38 mph 1018.3mb 78f 74f
12:30am  -   -   -  29 40 mph 1018.3mb 77f 75f
12:20am  -   -   -  27 36 mph 1018.3mb 78f 75f
12:10am  -   -   -  29 40 mph 1018.4mb 78f 75f
12:00am  -   -   -  27 34 mph 1018.4mb 78f 75f
Sun 01/22 11:50pm 15.5ft 11s 8s 29 36 mph 1018.5mb 78f 75f
11:40pm 15.5ft  -  8s 29 38 mph 1018.5mb 78f 75f
11:30pm  -   -   -  27 36 mph 1018.5mb 78f 75f
11:20pm  -   -   -  29 38 mph 1018.4mb 78f 75f
11:10pm  -   -   -  31 40 mph 1018.3mb 78f 75f
11:00pm  -   -   -  31 40 mph 1018.4mb 78f 74f
10:50pm 16.5ft 10s 8s 29 38 mph 1018.5mb 78f 74f
10:40pm 16.5ft  -  8s 29 38 mph 1018.6mb 78f 75f
10:30pm  -   -   -  29 36 mph 1018.8mb 78f 75f
10:20pm  -   -   -  29 38 mph 1018.8mb 78f 74f
10:10pm  -   -   -  31 38 mph 1018.5mb 78f 74f
10:00pm  -   -   -  27 34 mph 1018.5mb 78f 74f
9:50pm 16.5ft 10s 8s 27 34 mph 1018.5mb 78f 74f
9:40pm 16.5ft  -  8s 27 36 mph 1018.6mb 78f 73f
9:30pm  -   -   -  29 45 mph 1018.6mb 78f 74f
9:20pm  -   -   -  29 43 mph 1018.6mb 78f 75f
9:10pm  -   -   -  29 40 mph 1018.3mb 78f 75f
9:00pm  -   -   -  25 34 mph 1018.3mb 78f 74f
8:50pm 15ft 10s 8s 27 40 mph 1018.4mb 78f 73f
8:40pm 15ft  -  8s 29 40 mph 1018.4mb 78f 74f
8:30pm  -   -   -  29 36 mph 1018mb 78f 74f
8:20pm  -   -   -  29 38 mph 1018mb 78f 74f
8:10pm  -   -   -  27 36 mph 1018mb 78f 74f
8:00pm  -   -   -  27 34 mph 1017.8mb 78f 75f
7:50pm 19ft 10s 8s 29 38 mph 1017.6mb 78f 74f
7:40pm 19ft  -  8s 31 38 mph 1017.5mb 78f 74f
7:30pm  -   -   -  27 36 mph 1017.5mb 78f 75f
7:20pm  -   -   -  27 34 mph 1017.1mb 78f 74f
7:10pm  -   -   -  29 38 mph 1017.1mb 78f 73f
7:00pm  -   -   -  31 43 mph 1017mb 78f 73f
6:50pm 16.5ft 10s 8s 27 34 mph 1017mb 78f 74f
6:40pm 16.5ft  -  8s 29 38 mph 1016.9mb 78f 73f
6:30pm  -   -   -  27 36 mph 1016.9mb 78f 73f
6:20pm  -   -   -  27 36 mph 1016.9mb 78f 74f
6:10pm  -   -   -  29 40 mph 1016.5mb 78f 75f
6:00pm  -   -   -  29 36 mph 1016.3mb 78f 74f
5:50pm 17ft 11s 8s 29 36 mph 1016mb 78f 74f
5:40pm 17ft  -  8s 29 38 mph 1015.9mb 78f 74f
5:30pm  -   -   -  29 38 mph 1015.6mb 78f 75f
5:20pm  -   -   -  29 38 mph 1015.8mb 78f 74f
5:10pm  -   -   -  29 38 mph 1015.6mb 78f 74f
5:00pm  -   -   -  29 38 mph 1015.6mb 78f 74f
4:50pm 17.5ft 11s 8s 29 43 mph 1015.5mb 78f 75f
4:40pm 17.5ft  -  8s 27 36 mph 1015.5mb 78f 75f
4:30pm  -   -   -  27 36 mph 1015.4mb 78f 75f
4:20pm  -   -   -  27 36 mph 1015.4mb 78f 75f
4:10pm  -   -   -  27 36 mph 1015.1mb 78f 75f
4:00pm  -   -   -  27 34 mph 1015.3mb 78f 75f
3:50pm 17.5ft 11s 8s 27 36 mph 1015mb 78f 74f
3:40pm  -   -   -  29 36 mph 1015mb 78f 74f
3:30pm  -   -   -  31 40 mph 1015mb 78f 75f
3:20pm  -   -   -  27 36 mph 1014.9mb - 76f
3:10pm  -   -   -  27 36 mph 1014.9mb 78f 75f
3:00pm  -   -   -  22 29 mph 1015mb 78f 74f
2:50pm 15.5ft 11s 8s 22 31 mph 1015.1mb 78f 72f
2:40pm 15.5ft  -  8s 27 38 mph 1015.1mb 78f 73f
2:30pm  -   -   -  27 34 mph 1015.1mb 78f 74f
2:20pm  -   -   -  29 36 mph 1015.1mb 78f 74f
2:10pm  -   -   -  25 34 mph 1015.4mb 78f 75f
2:00pm  -   -   -  27 34 mph 1015.5mb 78f 74f
1:50pm 16.5ft 10s 8s 29 38 mph 1015.8mb 78f 74f
1:40pm 16.5ft  -  8s 27 38 mph 1015.8mb 78f 75f
1:30pm  -   -   -  25 31 mph 1016mb 78f 76f
1:20pm  -   -   -  25 31 mph 1016mb 78f 75f
1:10pm  -   -   -  25 31 mph 1016.1mb 78f 75f
1:00pm  -   -   -  25 31 mph 1016.5mb 78f 74f
12:50pm 18.5ft 10s 8s 29 40 mph 1016.6mb 78f 74f
12:40pm 18.5ft  -  8s 25 36 mph 1016.8mb 78f 75f
12:30pm  -   -   -  22 29 mph 1017mb 78f 75f
12:20pm  -   -   -  22 29 mph 1017.3mb 78f 73f
12:10pm  -   -   -  25 40 mph 1017.6mb 78f 74f
12:00pm  -   -   -  22 29 mph 1017.8mb 78f 75f
11:50am 15.5ft 10s 8s 22 27 mph 1018.4mb 78f 76f
11:40am  -   -   -  22 27 mph 1018.5mb 78f 76f
11:30am  -   -   -  22 31 mph 1018.5mb 78f 76f
11:20am  -   -   -  25 31 mph 1018.5mb 78f 77f
11:10am  -   -   -  25 31 mph 1018.5mb 78f 76f
11:00am  -   -   -  25 31 mph 1018.5mb 78f 76f
10:50am 17ft 10s 8s 22 29 mph 1018.5mb 78f 75f
10:40am 17ft  -  8s 27 38 mph 1018.6mb 78f 76f
10:30am  -   -   -  25 31 mph 1018.5mb 78f 76f
10:20am  -   -   -  22 31 mph 1018.5mb 78f 76f
10:10am  -   -   -  25 31 mph 1018.5mb 78f 76f
10:00am  -   -   -  25 31 mph 1018.5mb 78f 76f
9:50am 16.5ft 10s 8s 25 34 mph 1018.5mb 78f 76f
9:40am 16.5ft  -  8s 25 31 mph 1018.4mb 78f 76f
9:30am  -   -   -  27 34 mph 1018.3mb 78f 77f
9:20am  -   -   -  27 36 mph 1018.1mb 78f 77f
9:10am  -   -   -  27 34 mph 1018mb 78f 77f
9:00am  -   -   -  27 34 mph 1017.9mb 78f 76f
8:50am 17.5ft 10s 8s 27 34 mph 1018mb 78f 76f
8:40am 17.5ft  -  8s 25 31 mph 1017.9mb 78f 76f
8:30am  -   -   -  27 31 mph 1017.6mb 77f 76f
8:20am  -   -   -  27 36 mph 1017.6mb 78f 76f
8:10am  -   -   -  27 36 mph 1017.5mb 78f 77f
8:00am  -   -   -  27 31 mph 1017.3mb 78f 76f
7:50am 15.5ft 10s 8s 25 31 mph 1017.3mb 78f 76f
7:40am  -   -   -  27 34 mph 1017mb 78f 76f
7:30am  -   -   -  27 34 mph 1016.8mb 78f 77f
7:20am  -   -   -  31 40 mph 1016.4mb 78f 77f
7:10am  -   -   -  29 38 mph 1016mb 78f 77f
7:00am  -   -   -  29 40 mph 1016.1mb 78f 77f
6:50am 16.5ft 10s 8s 31 40 mph 1016mb 78f 77f
6:40am 16.5ft  -  8s 29 38 mph 1015.9mb 78f 77f
6:30am  -   -   -  31 40 mph 1016mb 78f 77f
6:20am  -   -   -  29 38 mph 1015.9mb 78f 77f
6:10am  -   -   -  27 36 mph 1015.8mb 78f 77f
6:00am  -   -   -  29 38 mph 1015.8mb 78f 77f
5:50am 14.5ft 10s 7s 29 36 mph 1015.8mb 78f 77f
5:40am 14.5ft  -  7s 29 38 mph 1015.5mb 78f 76f
5:30am  -   -   -  29 36 mph 1015.5mb 78f 77f
5:20am  -   -   -  31 38 mph 1015.4mb 77f 76f
5:10am  -   -   -  29 40 mph 1015.4mb 77f 76f
5:00am  -   -   -  29 38 mph 1015.3mb 77f 76f
4:50am 15ft 10s 8s 29 38 mph 1015.3mb 77f 76f
4:40am 15ft  -  8s 29 36 mph 1015.1mb 77f 76f
4:30am  -   -   -  27 36 mph 1015.1mb 77f 77f
4:20am  -   -   -  29 36 mph 1015.1mb 77f 76f
4:10am  -   -   -  29 36 mph 1015mb 77f 76f
4:00am  -   -   -  29 40 mph 1015mb 77f 76f
3:50am 14ft 9s 7s 29 40 mph 1014.9mb 77f 76f
3:40am 14ft  -  7s 29 38 mph 1014.8mb 77f 76f
3:30am  -   -   -  29 38 mph 1014.8mb 77f 77f
3:20am  -   -   -  29 36 mph 1014.8mb 77f 77f
3:10am  -   -   -  31 38 mph 1014.9mb - 77f
3:00am  -   -   -  31 40 mph 1014.9mb 77f 76f
2:50am 12ft 9s 7s 29 36 mph 1015mb 77f 76f
2:40am 12ft  -  7s 27 34 mph 1015.3mb 77f 75f
2:30am  -   -   -  27 31 mph 1015.4mb 77f 75f
2:20am  -   -   -  27 34 mph 1015.6mb 77f 76f
2:10am  -   -   -  27 36 mph 1015.8mb 77f 76f
2:00am  -   -   -  27 34 mph 1015.9mb 77f 76f
1:50am 12ft 9s 7s 25 31 mph 1016mb 77f 76f
1:40am 12ft  -  7s 25 31 mph 1016.3mb 77f 76f
1:30am  -   -   -  22 31 mph 1016.5mb 77f 75f
1:20am  -   -   -  25 31 mph 1016.6mb 77f 76f
1:10am  -   -   -  25 31 mph 1016.5mb 77f 76f
1:00am  -   -   -  25 31 mph 1016.5mb 77f 76f
12:50am 11ft 9s 7s 25 34 mph 1016.8mb 77f 76f
12:40am 11ft  -  7s 25 31 mph 1016.9mb 77f 76f
12:30am  -   -   -  25 31 mph 1017.2mb - 76f
12:20am  -   -   -  25 34 mph 1016.9mb 77f 77f
12:10am  -   -   -  25 31 mph 1016.8mb 77f 77f
12:00am  -   -   -  25 31 mph 1016.9mb 77f 77f
Sat 01/21 11:50pm 12.5ft 9s 7s 25 34 mph 1016.9mb 77f 76f
11:40pm 12.5ft  -  7s 27 34 mph 1016.9mb 77f 76f
11:30pm  -   -   -  25 31 mph 1016.9mb 77f 76f
11:20pm  -   -   -  25 31 mph 1016.9mb 77f 77f
11:10pm  -   -   -  25 34 mph 1016.9mb 77f 77f
11:00pm  -   -   -  25 34 mph 1016.8mb 78f 77f
10:50pm 12ft 9s 7s 25 31 mph 1016.9mb 77f 77f
10:40pm 12ft  -  7s 27 31 mph 1017mb 77f 77f
10:30pm  -   -   -  25 34 mph 1017mb 78f 77f
10:20pm  -   -   -  27 31 mph 1017mb 77f 77f
10:10pm  -   -   -  27 34 mph 1017mb 78f 77f
10:00pm  -   -   -  27 36 mph 1016.9mb 78f 77f
9:50pm 12.5ft 8s 7s 27 34 mph 1017mb 78f 76f
9:40pm 12.5ft  -  7s 27 34 mph 1016.9mb 78f 76f
9:30pm  -   -   -  27 34 mph 1016.8mb 78f 76f
9:20pm  -   -   -  25 31 mph 1016.8mb 78f 76f
9:10pm  -   -   -  27 36 mph 1016.8mb 78f 76f
9:00pm  -   -   -  25 31 mph 1016.6mb 78f 77f
8:50pm 12.5ft 8s 7s 25 31 mph 1016.6mb 78f 77f
8:40pm 12.5ft  -  7s 27 34 mph 1016.5mb 78f 77f
8:30pm  -   -   -  27 34 mph 1016.5mb 78f 77f
8:20pm  -   -   -  29 36 mph 1016.1mb 78f 77f
8:10pm  -   -   -  27 34 mph 1016.1mb - 77f
8:00pm  -   -   -  27 34 mph 1016mb 78f 76f
7:50pm 13ft 9s 7s 27 36 mph 1016mb 78f 77f
7:40pm 13ft  -  7s 29 36 mph 1015.9mb 78f 77f
7:30pm  -   -   -  29 36 mph 1015.8mb 78f 77f
7:20pm  -   -   -  31 38 mph 1015.6mb 78f 77f
7:10pm  -   -   -  27 36 mph 1015.5mb 78f 77f
7:00pm  -   -   -  27 36 mph 1015.5mb 78f 77f
6:50pm  -   -   -  29 36 mph 1015.4mb 78f 77f
6:40pm  -   -   -  29 36 mph 1015.3mb 78f 77f
6:30pm  -   -   -  29 34 mph 1015.3mb 78f 77f
6:20pm  -   -   -  27 36 mph 1015.1mb 78f 77f
6:10pm  -   -   -  29 34 mph 1015mb 78f 77f
6:00pm  -   -   -  29 38 mph 1015mb 78f 77f
5:50pm 11ft 8s 6s 27 34 mph 1015mb 78f 77f
5:40pm 11ft  -  6s 27 34 mph 1014.9mb 78f 77f
5:30pm  -   -   -  29 34 mph 1014.8mb 78f 77f
5:20pm  -   -   -  29 34 mph 1014.5mb 78f 77f
5:10pm  -   -   -  27 34 mph 1014.5mb 78f 77f
5:00pm  -   -   -  27 31 mph 1014.5mb 78f 77f
4:50pm 11ft 8s 7s 25 31 mph 1014.5mb 78f 77f
4:40pm  -   -   -  27 31 mph 1014.3mb 78f 77f
4:30pm  -   -   -  27 34 mph 1014.4mb 78f 77f
4:20pm  -   -   -  25 31 mph 1014.3mb 78f 77f
4:10pm  -   -   -  25 34 mph 1014.1mb 78f 77f
4:00pm  -   -   -  22 29 mph 1014.1mb 78f 77f
3:50pm 10ft 14s 6s 25 29 mph 1014mb 78f 77f
3:40pm 10ft  -  6s 25 31 mph 1014mb 78f 77f
3:30pm  -   -   -  25 29 mph 1014mb 78f 77f
3:20pm  -   -   -  25 29 mph 1014mb 78f 77f
3:10pm  -   -   -  25 29 mph 1014mb 78f 77f
3:00pm  -   -   -  25 31 mph 1014mb 78f 77f
2:50pm 10ft 9s 6s 25 31 mph 1014mb 78f 77f
2:40pm 10ft  -  6s 25 29 mph 1014mb 78f 77f
2:30pm  -   -   -  25 31 mph 1014mb 78f 77f
2:20pm  -   -   -  25 31 mph 1014mb 78f 77f
2:10pm  -   -   -  27 31 mph 1014mb 78f 77f
2:00pm  -   -   -  27 31 mph 1014mb 78f 77f
1:50pm 9.5ft 8s 6s 27 31 mph 1014.3mb 78f 77f
1:40pm 9.5ft  -  6s 25 29 mph 1014.5mb 78f 77f
1:30pm  -   -   -  25 31 mph 1014.5mb 78f 77f
1:20pm  -   -   -  25 31 mph 1014.8mb 78f 77f
1:10pm  -   -   -  25 31 mph 1015mb 78f 77f
1:00pm  -   -   -  25 31 mph 1015.3mb 78f 77f
12:50pm 9ft 15s 6s 25 29 mph 1015.4mb 78f 77f
12:40pm  -   -   -  25 31 mph 1015.5mb 78f 77f
12:30pm  -   -   -  25 31 mph 1015.8mb 78f 77f
12:20pm  -   -   -  22 29 mph 1015.9mb 78f 77f
12:10pm  -   -   -  22 29 mph 1016mb 78f 77f
12:00pm  -   -   -  25 27 mph 1016.1mb 78f 77f
11:50am 9ft 12s 7s 22 29 mph 1016.3mb 78f 77f
11:40am 9ft  -  7s 25 29 mph 1016.4mb 78f 77f
11:30am  -   -   -  25 29 mph 1016.5mb 78f 76f
11:20am  -   -   -  22 29 mph 1016.5mb 78f 76f
11:10am  -   -   -  22 29 mph 1016.6mb 78f 76f
11:00am  -   -   -  25 29 mph 1016.8mb 78f 76f
10:50am 8ft 14s 7s 22 27 mph 1016.9mb 78f 76f
10:40am 8ft  -  7s 22 29 mph 1016.9mb 78f 77f
10:30am  -   -   -  22 27 mph 1016.9mb - 77f
10:20am  -   -   -  22 29 mph 1016.8mb 78f 77f
10:10am  -   -   -  22 29 mph 1016.8mb 78f 77f
10:00am  -   -   -  22 29 mph 1016.8mb 78f 77f
9:50am 7.5ft 9s 7s 22 27 mph 1016.9mb 78f 76f
9:40am 7.5ft  -  7s 20 25 mph 1016.9mb 78f 76f
9:30am  -   -   -  20 25 mph 1016.9mb 78f 76f
9:20am  -   -   -  20 22 mph 1017mb 78f 76f
9:10am  -   -   -  18 22 mph 1017mb 78f 76f
9:00am  -   -   -  20 25 mph 1017mb 78f 76f
8:50am 8ft 10s 7s 18 22 mph 1017mb 78f 76f
8:40am 8ft  -  7s 18 22 mph 1017mb 78f 76f
8:30am  -   -   -  18 22 mph 1016.9mb 78f 76f
8:20am  -   -   -  18 22 mph 1016.9mb 78f 76f
8:10am  -   -   -  18 22 mph 1016.8mb 78f 76f
8:00am  -   -   -  18 22 mph 1016.6mb 78f 76f
7:50am 8ft 14s 7s 18 22 mph 1016.5mb 78f 76f
7:40am 8ft  -  7s 18 22 mph 1016.4mb 78f 76f
7:30am  -   -   -  18 22 mph 1016.3mb 78f 76f
7:20am  -   -   -  18 22 mph 1016.1mb 78f 76f
7:10am  -   -   -  20 25 mph 1016mb 78f 76f
7:00am  -   -   -  20 25 mph 1016mb 78f 76f
6:50am 8.5ft 9s 7s 20 25 mph 1015.9mb 78f 76f
6:40am 8.5ft  -  7s 20 25 mph 1015.8mb 78f 76f
6:30am  -   -   -  22 27 mph 1015.8mb 78f 76f
6:20am  -   -   -  22 27 mph 1015.5mb 78f 76f
6:10am  -   -   -  22 27 mph 1015.5mb 78f 76f
6:00am  -   -   -  20 25 mph 1015.5mb 78f 76f
5:50am 8.5ft 9s 7s 20 25 mph 1015.5mb 78f 76f
5:40am 8.5ft  -  7s 22 27 mph 1015.4mb 78f 76f
5:30am  -   -   -  22 25 mph 1015.4mb 78f 76f
5:20am  -   -   -  22 27 mph 1015.4mb 78f 76f
5:10am  -   -   -  20 27 mph 1015.4mb 78f 76f
5:00am  -   -   -  20 25 mph 1015.4mb 78f 76f
4:50am 8.5ft 15s 7s 20 22 mph 1015.5mb 78f 76f
4:40am 8.5ft  -  7s 20 25 mph 1015.5mb 78f 76f
4:30am  -   -   -  20 25 mph 1015.5mb 78f 76f
4:20am  -   -   -  20 25 mph 1015.5mb 78f 76f
4:10am  -   -   -  20 25 mph 1015.5mb 78f 76f
4:00am  -   -   -  20 25 mph 1015.5mb 78f 76f
3:50am 8.5ft 14s 7s 20 25 mph 1015.6mb 78f 76f
3:40am  -   -   -  20 25 mph 1015.5mb 78f 76f
3:30am  -   -   -  20 27 mph 1015.5mb 78f 76f
3:20am  -   -   -  20 25 mph 1015.6mb 78f 76f
3:10am  -   -   -  22 27 mph 1016mb - 76f
3:00am  -   -   -  20 25 mph 1015.6mb 78f 76f
2:50am 8.5ft 10s 7s 20 25 mph 1015.8mb 78f 76f
2:40am 8.5ft  -  7s 20 27 mph 1015.9mb 78f 76f
2:30am  -   -   -  22 27 mph 1016.2mb - 76f
2:20am  -   -   -  20 25 mph 1015.9mb 78f 76f
2:10am  -   -   -  20 22 mph 1016mb 78f 76f
2:00am  -   -   -  20 25 mph 1016mb 78f 76f
1:50am 8ft 10s 7s 20 25 mph 1016.1mb 78f 76f
1:40am 8ft  -  7s 18 25 mph 1016.1mb 78f 76f
1:30am  -   -   -  18 22 mph 1016.3mb 78f 76f
1:20am  -   -   -  18 25 mph 1016.3mb 78f 76f
1:10am  -   -   -  18 22 mph 1016.5mb 78f 76f
1:00am  -   -   -  18 22 mph 1016.6mb 78f 76f
12:50am 9ft 14s 7s 18 22 mph 1016.6mb 78f 76f
12:40am  -   -   -  18 22 mph 1016.8mb 78f 76f
12:30am  -   -   -  18 20 mph 1016.9mb 78f 76f
12:20am  -   -   -  16 20 mph 1017mb 78f 76f
12:10am  -   -   -  18 20 mph 1017mb 78f 76f
12:00am  -   -   -  16 20 mph 1017mb 78f 76f
Fri 01/20 11:50pm 9ft 14s 7s 18 20 mph 1017.1mb 78f 76f
11:40pm 9ft  -  7s 18 22 mph 1017.1mb 78f 76f
11:30pm  -   -   -  18 22 mph 1017.1mb 78f 76f
11:20pm  -   -   -  18 22 mph 1017.3mb 78f 77f
11:10pm  -   -   -  18 22 mph 1017.3mb 78f 77f
11:00pm  -   -   -  18 22 mph 1017.4mb 78f 77f
10:50pm 8ft 10s 7s 18 25 mph 1017.5mb 78f 77f
10:40pm 8ft  -  7s 18 25 mph 1017.5mb 78f 77f
10:30pm  -   -   -  18 22 mph 1017.8mb 78f 77f
10:20pm  -   -   -  18 22 mph 1017.8mb 78f 76f
10:10pm  -   -   -  18 22 mph 1017.8mb 78f 76f
10:00pm  -   -   -  16 20 mph 1017.8mb 78f 76f
9:50pm 9ft 14s 7s 18 22 mph 1017.8mb 78f 76f
9:40pm 9ft  -  7s 18 20 mph 1017.8mb 78f 76f
9:30pm  -   -   -  18 22 mph 1017.8mb 78f 76f
9:20pm  -   -   -  20 25 mph 1017.6mb 78f 76f
9:10pm  -   -   -  18 22 mph 1017.6mb - 76f
9:00pm  -   -   -  18 22 mph 1017.6mb 78f 75f
8:50pm 9.5ft 9s 7s 18 22 mph 1017.5mb 78f 75f
8:40pm 9.5ft  -  7s 20 25 mph 1017.5mb 78f 75f
8:30pm  -   -   -  20 25 mph 1017.5mb 78f 75f
8:20pm  -   -   -  22 27 mph 1017.5mb 78f 75f
8:10pm  -   -   -  22 27 mph 1017.3mb 78f 75f
8:00pm  -   -   -  22 27 mph 1017.3mb 78f 76f
7:50pm 9ft 14s 7s 20 27 mph 1017.1mb 78f 76f
7:40pm 9ft  -  7s 20 25 mph 1017mb 78f 76f
7:30pm  -   -   -  20 25 mph 1017mb 78f 76f
7:20pm  -   -   -  20 25 mph 1016.9mb 78f 75f
7:10pm  -   -   -  22 27 mph 1016.6mb 78f 75f
7:00pm  -   -   -  22 27 mph 1016.6mb 78f 75f
6:50pm 9.5ft 14s 7s 22 27 mph 1016.5mb 78f 76f
6:40pm 9.5ft  -  7s 20 27 mph 1016.5mb 78f 76f
6:30pm  -   -   -  20 25 mph 1016.4mb 78f 76f
6:20pm  -   -   -  20 25 mph 1016.4mb 78f 76f
6:10pm  -   -   -  18 25 mph 1016.4mb 78f 76f
6:00pm  -   -   -  18 22 mph 1016.5mb 78f 76f
5:50pm 9ft 14s 8s 18 22 mph 1016.4mb 78f 76f
5:40pm 9ft  -  8s 16 22 mph 1016.4mb 78f 76f
5:30pm  -   -   -  16 20 mph 1016.3mb 78f 75f
5:20pm  -   -   -  18 22 mph 1016.1mb 78f 75f
5:10pm  -   -   -  18 25 mph 1016.1mb 78f 76f
5:00pm  -   -   -  16 20 mph 1016.1mb 78f 76f
4:50pm 9ft 15s 7s 16 20 mph 1016mb 78f 76f
4:40pm 9ft  -  7s 16 20 mph 1016mb 78f 76f
4:30pm  -   -   -  16 20 mph 1016mb 78f 77f
4:20pm  -   -   -  16 20 mph 1016mb 78f 77f
4:10pm  -   -   -  16 20 mph 1016mb 78f 76f
4:00pm  -   -   -  16 20 mph 1016mb 78f 76f
3:50pm 8.5ft 14s 7s 16 20 mph 1015.9mb 78f 76f
3:40pm  -   -   -  16 20 mph 1015.9mb 78f 77f
3:30pm 8.5ft  -  7s 18 20 mph 1015.9mb 78f 76f
3:20pm  -   -   -  18 20 mph 1015.9mb 78f 76f
3:10pm  -   -   -  18 22 mph 1015.8mb 78f 76f
3:00pm  -   -   -  18 20 mph 1015.5mb - 77f
2:50pm 8.5ft 14s 8s 18 22 mph 1015.5mb 78f 77f
2:40pm 8.5ft  -  8s 18 22 mph 1015.5mb 78f 77f
2:30pm  -   -   -  18 20 mph 1015.6mb 78f 77f
2:20pm  -   -   -  18 20 mph 1015.8mb 78f 77f
2:10pm  -   -   -  16 20 mph 1015.9mb 78f 77f
2:00pm  -   -   -  16 20 mph 1016mb 78f 77f
1:50pm 9.5ft 13s 8s 16 20 mph 1016.3mb 78f 77f
1:40pm 9.5ft  -  8s 16 20 mph 1016.4mb 78f 77f
1:30pm  -   -   -  16 20 mph 1016.5mb 78f 77f
1:20pm  -   -   -  16 20 mph 1016.5mb 78f 77f
1:10pm  -   -   -  16 20 mph 1016.6mb 78f 77f
1:00pm  -   -   -  16 20 mph 1016.8mb 78f 77f
12:50pm 9ft 15s 8s 16 20 mph 1016.9mb 78f 77f
12:40pm  -   -   -  16 20 mph 1017.1mb 78f 77f
12:30pm  -   -   -  18 22 mph 1017.3mb 78f 77f
12:20pm  -   -   -  18 22 mph 1017.5mb 78f 77f
12:10pm  -   -   -  18 22 mph 1017.6mb 78f 77f
12:00pm  -   -   -  18 22 mph 1017.9mb 78f 77f
11:50am 9ft 14s 8s 18 25 mph 1018.1mb 78f 77f
11:40am  -   -   -  18 22 mph 1018.4mb 78f 77f
11:30am  -   -   -  18 22 mph 1018.5mb 78f 77f
11:20am  -   -   -  18 22 mph 1018.5mb 78f 77f
11:10am  -   -   -  18 22 mph 1018.5mb 78f 77f
11:00am  -   -   -  18 22 mph 1018.5mb 78f 77f
10:50am 10ft 14s 8s 18 22 mph 1018.5mb 78f 77f
10:40am 10ft  -  8s 18 22 mph 1018.6mb 78f 77f
10:30am  -   -   -  18 25 mph 1018.8mb 78f 77f
10:20am  -   -   -  18 25 mph 1018.9mb 78f 77f
10:10am  -   -   -  18 25 mph 1018.9mb 78f 77f
10:00am  -   -   -  18 22 mph 1018.9mb 78f 77f
9:50am 9ft 15s 7s 18 22 mph 1018.9mb 78f 76f
9:40am 9ft  -  7s 16 22 mph 1018.9mb 78f 76f
9:30am  -   -   -  16 22 mph 1018.8mb 78f 76f
9:20am  -   -   -  18 22 mph 1018.6mb 78f 76f
9:10am  -   -   -  18 20 mph 1018.8mb 78f 76f
9:00am  -   -   -  16 20 mph 1018.6mb 78f 76f
8:50am 10ft 14s 8s 18 22 mph 1018.5mb 78f 76f
8:40am  -   -   -  16 20 mph 1018.4mb 78f 75f
8:30am  -   -   -  18 20 mph 1018.6mb - 75f
8:20am  -   -   -  18 22 mph 1018mb 78f 75f
8:10am  -   -   -  18 25 mph 1018mb 78f 75f
8:00am  -   -   -  18 25 mph 1017.9mb 78f 75f
7:50am 10ft 14s 8s 18 22 mph 1017.8mb - 76f
7:40am 10ft  -  8s 18 22 mph 1017.6mb 78f 76f
7:30am  -   -   -  18 22 mph 1017.5mb 78f 76f
7:20am  -   -   -  16 22 mph 1017.5mb 78f 76f
7:10am  -   -   -  18 20 mph 1017.4mb 78f 76f
7:00am  -   -   -  18 22 mph 1017.3mb 78f 76f
6:50am 10.5ft 14s 8s 18 22 mph 1017.3mb 78f 76f
6:40am  -   -   -  18 22 mph 1017.1mb 78f 76f
6:30am  -   -   -  18 22 mph 1017mb 78f 76f
6:20am  -   -   -  18 22 mph 1017mb 78f 76f
6:10am  -   -   -  18 22 mph 1017mb 78f 76f
6:00am  -   -   -  18 22 mph 1016.9mb 78f 76f
5:50am 10ft 15s 7s 18 22 mph 1016.9mb 78f 76f
5:40am 10ft  -  7s 18 22 mph 1016.8mb 78f 76f
5:30am  -   -   -  18 22 mph 1016.8mb 78f 76f
5:20am  -   -   -  16 20 mph 1016.8mb 78f 76f
5:10am  -   -   -  18 22 mph 1016.6mb 78f 76f
5:00am  -   -   -  18 22 mph 1016.8mb 78f 76f
4:50am 9.5ft 15s 7s 18 22 mph 1016.8mb 78f 76f
4:40am 9.5ft  -  7s 18 22 mph 1016.6mb 78f 76f
4:30am  -   -   -  20 25 mph 1016.6mb 78f 76f
4:20am  -   -   -  20 25 mph 1016.5mb 78f 76f
4:10am  -   -   -  20 25 mph 1016.6mb 78f 76f
4:00am  -   -   -  20 27 mph 1016.6mb 78f 76f
3:50am 10ft 10s 7s 20 25 mph 1016.8mb 78f 76f
3:40am 10ft  -  7s 20 25 mph 1016.8mb 78f 76f
3:30am  -   -   -  20 25 mph 1016.9mb 78f 76f
3:20am  -   -   -  20 25 mph 1017mb 78f 76f
3:10am  -   -   -  20 25 mph 1017mb 78f 76f
3:00am  -   -   -  18 22 mph 1017mb 78f 76f
2:50am 11ft 15s 8s 20 25 mph 1017mb 78f 76f
2:40am 11ft  -  8s 20 27 mph 1017.1mb 78f 76f
2:30am  -   -   -  20 25 mph 1017.3mb 78f 76f
2:20am  -   -   -  20 25 mph 1017.5mb 78f 76f
2:10am  -   -   -  20 25 mph 1017.5mb 78f 76f
2:00am  -   -   -  20 25 mph 1017.6mb 78f 76f
1:50am 11ft 15s 8s 20 27 mph 1017.6mb 78f 75f
1:40am 11ft  -  8s 20 25 mph 1017.8mb 78f 76f
1:30am  -   -   -  20 25 mph 1017.9mb 78f 75f
1:20am  -   -   -  18 25 mph 1018mb 78f 75f
1:10am  -   -   -  20 25 mph 1018.1mb 78f 75f
1:00am  -   -   -  18 25 mph 1018.3mb 78f 74f
12:50am 10.5ft 9s 7s 18 22 mph 1018.4mb 78f 74f
12:40am 10.5ft  -  7s 18 27 mph 1018.4mb 78f 73f
12:30am  -   -   -  20 27 mph 1018.5mb 78f 74f
12:20am  -   -   -  22 27 mph 1018.5mb 78f 75f